createdAt,value
2023-03-02T00:00:36.401Z,4.00
2023-03-02T00:03:03.863Z,3.80
2023-03-02T00:05:31.624Z,4.18
2023-03-02T00:07:59.313Z,4.10
2023-03-02T00:10:26.691Z,4.03
2023-03-02T00:12:54.094Z,3.60
2023-03-02T00:15:21.465Z,3.60
2023-03-02T00:17:50.183Z,3.50
2023-03-02T00:20:17.595Z,3.42
2023-03-02T00:22:45.688Z,3.58
2023-03-02T00:25:13.539Z,3.80
2023-03-02T00:27:41.135Z,3.55
2023-03-02T00:30:10.012Z,3.58
2023-03-02T00:32:37.471Z,3.45
2023-03-02T00:35:07.086Z,3.60
2023-03-02T00:37:35.819Z,3.40
2023-03-02T00:40:04.685Z,3.78
2023-03-02T00:42:32.068Z,3.28
2023-03-02T00:45:01.318Z,3.38
2023-03-02T00:47:29.476Z,3.47
2023-03-02T00:49:56.873Z,3.75
2023-03-02T00:52:25.574Z,3.50
2023-03-02T00:54:52.939Z,3.40
2023-03-02T00:57:20.311Z,3.78
2023-03-02T00:59:47.677Z,3.05
2023-03-02T01:02:15.101Z,3.55
2023-03-02T01:04:43.357Z,3.15
2023-03-02T01:07:11.850Z,3.75
2023-03-02T01:09:41.003Z,3.55
2023-03-02T01:12:10.320Z,3.67
2023-03-02T01:14:37.754Z,4.40
2023-03-02T01:17:05.277Z,3.83
2023-03-02T01:19:32.819Z,3.58
2023-03-02T01:22:00.246Z,3.70
2023-03-02T01:24:27.765Z,3.78
2023-03-02T01:26:56.504Z,3.47
2023-03-02T01:29:23.873Z,4.05
2023-03-02T01:31:51.427Z,3.53
2023-03-02T01:34:18.877Z,3.88
2023-03-02T01:36:46.374Z,4.20
2023-03-02T01:39:15.708Z,3.92
2023-03-02T01:41:43.182Z,3.97
2023-03-02T01:44:37.136Z,3.72
2023-03-02T01:47:04.932Z,3.83
2023-03-02T01:49:32.576Z,4.03
2023-03-02T01:52:00.170Z,5.60
2023-03-02T01:54:27.540Z,5.22
2023-03-02T01:56:56.802Z,5.72
2023-03-02T01:59:24.328Z,5.00
2023-03-02T02:01:54.766Z,5.50
2023-03-02T02:04:22.203Z,5.30
2023-03-02T02:06:51.947Z,6.10
2023-03-02T02:09:19.460Z,6.00
2023-03-02T02:11:47.011Z,5.45
2023-03-02T02:14:14.405Z,5.72
2023-03-02T02:16:42.128Z,5.72
2023-03-02T02:19:16.106Z,5.78
2023-03-02T02:21:43.467Z,5.70
2023-03-02T02:24:12.415Z,5.70
2023-03-02T02:26:42.725Z,5.95
2023-03-02T02:29:12.293Z,6.13
2023-03-02T02:31:41.544Z,6.28
2023-03-02T02:34:13.110Z,6.15
2023-03-02T02:36:42.335Z,6.10
2023-03-02T02:39:11.379Z,5.93
2023-03-02T02:41:40.671Z,6.00
2023-03-02T02:44:10.498Z,5.80
2023-03-02T02:46:37.893Z,5.78
2023-03-02T02:49:07.188Z,6.32
2023-03-02T02:51:35.401Z,6.37
2023-03-02T02:54:03.600Z,5.78
2023-03-02T02:56:32.355Z,6.07
2023-03-02T02:59:03.152Z,5.78
2023-03-02T03:01:30.586Z,6.15
2023-03-02T03:03:59.087Z,6.43
2023-03-02T03:06:27.795Z,6.35
2023-03-02T03:09:00.170Z,6.10
2023-03-02T03:11:28.544Z,6.60
2023-03-02T03:14:06.175Z,5.78
2023-03-02T03:16:34.295Z,6.10
2023-03-02T03:19:06.442Z,5.50
2023-03-02T03:21:33.820Z,6.53
2023-03-02T03:24:01.233Z,6.05
2023-03-02T03:26:28.622Z,6.38
2023-03-02T03:28:57.139Z,5.60
2023-03-02T03:31:26.478Z,5.57
2023-03-02T03:33:54.214Z,6.28
2023-03-02T03:36:21.596Z,5.93
2023-03-02T03:38:49.287Z,5.78
2023-03-02T03:41:16.661Z,6.05
2023-03-02T03:43:44.037Z,5.80
2023-03-02T03:46:11.473Z,5.20
2023-03-02T03:48:40.590Z,5.80
2023-03-02T03:51:07.967Z,5.78
2023-03-02T03:53:35.344Z,5.40
2023-03-02T03:56:03.698Z,5.15
2023-03-02T03:58:31.323Z,5.25
2023-03-02T04:00:58.747Z,4.75
2023-03-02T04:03:26.966Z,4.70
2023-03-02T04:05:55.634Z,4.97
2023-03-02T04:08:23.110Z,4.80
2023-03-02T04:10:50.515Z,4.78
2023-03-02T04:13:17.900Z,4.70
2023-03-02T04:15:47.063Z,4.45
2023-03-02T04:18:14.610Z,4.75
2023-03-02T04:20:41.981Z,4.80
2023-03-02T04:23:10.741Z,4.40
2023-03-02T04:25:38.108Z,4.55
2023-03-02T04:28:05.791Z,4.10
2023-03-02T04:30:33.618Z,4.72
2023-03-02T04:33:01.065Z,4.32
2023-03-02T04:35:28.481Z,4.60
2023-03-02T04:37:55.935Z,4.85
2023-03-02T04:40:24.649Z,4.60
2023-03-02T04:42:52.036Z,4.45
2023-03-02T04:45:19.437Z,4.63
2023-03-02T04:47:46.823Z,4.90
2023-03-02T04:50:14.866Z,4.13
2023-03-02T04:52:42.451Z,5.03
2023-03-02T04:55:11.247Z,5.22
2023-03-02T04:57:39.933Z,4.97
2023-03-02T05:00:10.224Z,4.93
2023-03-02T05:02:37.656Z,5.28
2023-03-02T05:05:05.501Z,5.15
2023-03-02T05:07:32.883Z,4.90
2023-03-02T05:10:00.307Z,5.18
2023-03-02T05:12:27.800Z,5.38
2023-03-02T05:14:56.512Z,5.90
2023-03-02T05:17:23.888Z,4.85
2023-03-02T05:19:51.290Z,5.22
2023-03-02T05:22:18.654Z,5.35
2023-03-02T05:24:46.061Z,5.60
2023-03-02T05:27:13.454Z,5.13
2023-03-02T05:29:40.841Z,5.25
2023-03-02T05:32:10.299Z,5.38
2023-03-02T05:34:37.725Z,5.20
2023-03-02T05:37:05.104Z,5.32
2023-03-02T05:39:32.502Z,5.40
2023-03-02T05:41:59.894Z,5.07
2023-03-02T05:44:27.277Z,5.70
2023-03-02T05:46:54.699Z,5.70
2023-03-02T05:49:23.502Z,6.15
2023-03-02T05:51:50.874Z,6.47
2023-03-02T05:54:18.264Z,6.13
2023-03-02T05:56:45.647Z,6.55
2023-03-02T05:59:13.128Z,6.00
2023-03-02T06:01:40.549Z,6.45
2023-03-02T06:04:08.084Z,6.88
2023-03-02T06:06:36.986Z,7.05
2023-03-02T06:09:04.701Z,7.60
2023-03-02T06:11:32.073Z,6.60
2023-03-02T06:13:59.469Z,6.53
2023-03-02T06:16:27.013Z,7.57
2023-03-02T06:18:54.461Z,6.63
2023-03-02T06:21:21.836Z,6.60
2023-03-02T06:23:50.557Z,6.75
2023-03-02T06:26:17.926Z,7.22
2023-03-02T06:28:53.856Z,7.32
2023-03-02T06:31:22.424Z,7.00
2023-03-02T06:33:50.100Z,7.07
2023-03-02T06:36:18.075Z,7.25
2023-03-02T06:38:45.517Z,7.88
2023-03-02T06:41:14.221Z,7.55
2023-03-02T06:43:41.594Z,8.15
2023-03-02T06:46:09.029Z,8.25
2023-03-02T06:48:36.493Z,7.80
2023-03-02T06:51:03.868Z,8.00
2023-03-02T06:53:31.284Z,7.30
2023-03-02T06:55:58.655Z,7.78
2023-03-02T06:58:27.387Z,7.78
2023-03-02T07:00:54.821Z,7.25
2023-03-02T07:03:22.402Z,6.90
2023-03-02T07:05:51.712Z,7.40
2023-03-02T07:08:19.141Z,6.70
2023-03-02T07:10:46.568Z,7.35
2023-03-02T07:13:13.939Z,6.45
2023-03-02T07:15:42.624Z,6.90
2023-03-02T07:18:09.999Z,6.45
2023-03-02T07:20:38.132Z,6.70
2023-03-02T07:23:05.525Z,6.45
2023-03-02T07:25:32.932Z,6.10
2023-03-02T07:28:00.327Z,6.28
2023-03-02T07:30:27.852Z,6.00
2023-03-02T07:32:57.518Z,6.68
2023-03-02T07:35:24.986Z,6.40
2023-03-02T07:37:52.706Z,6.35
2023-03-02T07:40:20.669Z,6.40
2023-03-02T07:42:48.070Z,5.55
2023-03-02T07:45:16.664Z,6.32
2023-03-02T07:47:44.056Z,6.32
2023-03-02T07:50:13.101Z,6.43
2023-03-02T07:52:40.514Z,5.97
2023-03-02T07:55:08.558Z,6.40
2023-03-02T07:57:35.967Z,6.00
2023-03-02T08:00:03.410Z,6.32
2023-03-02T08:02:30.957Z,6.35
2023-03-02T08:04:58.417Z,6.15
2023-03-02T08:07:27.117Z,6.32
2023-03-02T08:09:54.545Z,5.90
2023-03-02T08:12:21.922Z,5.97
2023-03-02T08:14:49.290Z,6.10
2023-03-02T08:17:16.665Z,5.75
2023-03-02T08:19:44.068Z,5.82
2023-03-02T08:22:11.957Z,6.18
2023-03-02T08:24:41.698Z,5.72
2023-03-02T08:27:09.791Z,6.00
2023-03-02T08:29:37.167Z,5.80
2023-03-02T08:32:04.866Z,5.82
2023-03-02T08:34:32.536Z,6.65
2023-03-02T08:36:59.904Z,6.35
2023-03-02T08:39:30.191Z,6.55
2023-03-02T08:41:58.926Z,6.80
2023-03-02T08:44:26.324Z,6.15
2023-03-02T08:46:54.938Z,6.40
2023-03-02T08:49:22.355Z,6.82
2023-03-02T08:51:53.350Z,6.68
2023-03-02T08:54:21.178Z,6.10
2023-03-02T08:56:48.785Z,6.68
2023-03-02T08:59:18.117Z,6.53
2023-03-02T09:01:45.636Z,6.63
2023-03-02T09:04:13.157Z,6.88
2023-03-02T09:06:41.733Z,6.60
2023-03-02T09:09:09.357Z,6.40
2023-03-02T09:11:36.744Z,6.97
2023-03-02T09:14:04.202Z,6.10
2023-03-02T09:16:32.911Z,6.03
2023-03-02T09:19:00.368Z,5.78
2023-03-02T09:21:27.754Z,6.00
2023-03-02T09:23:57.896Z,10.50
2023-03-02T09:28:52.937Z,7.97
2023-03-02T09:31:20.423Z,7.75
2023-03-02T09:33:49.136Z,8.18
2023-03-02T09:36:19.417Z,8.30
2023-03-02T09:38:46.889Z,8.23
2023-03-02T09:41:55.049Z,8.10
2023-03-02T09:44:41.368Z,7.78
2023-03-02T09:47:12.628Z,8.18
2023-03-02T09:49:47.476Z,7.10
2023-03-02T09:52:21.520Z,7.00
2023-03-02T09:54:48.912Z,7.80
2023-03-02T09:57:21.772Z,6.95
2023-03-02T09:59:50.988Z,7.50
2023-03-02T10:02:24.203Z,7.38
2023-03-02T10:04:54.629Z,7.95
2023-03-02T10:07:25.722Z,7.03
2023-03-02T10:09:53.115Z,6.90
2023-03-02T10:12:32.103Z,7.00
2023-03-02T10:15:02.150Z,6.80
2023-03-02T10:17:43.921Z,7.68
2023-03-02T10:20:15.709Z,29.63
2023-03-02T10:22:44.669Z,26.38
2023-03-02T10:25:18.778Z,20.98
2023-03-02T10:27:50.284Z,17.90
2023-03-02T10:30:20.137Z,14.95
2023-03-02T10:32:48.688Z,16.50
2023-03-02T10:35:19.162Z,15.48
2023-03-02T10:37:46.628Z,14.95
2023-03-02T10:40:22.064Z,14.35
2023-03-02T10:42:49.506Z,13.70
2023-03-02T10:45:20.009Z,13.30
2023-03-02T10:47:47.391Z,12.00
2023-03-02T10:50:23.688Z,13.77
2023-03-02T10:52:59.710Z,13.00
2023-03-02T10:55:27.775Z,12.55
2023-03-02T10:58:00.984Z,11.88
2023-03-02T11:00:29.072Z,11.07
2023-03-02T11:02:57.174Z,11.70
2023-03-02T11:05:29.875Z,11.02
2023-03-02T11:07:58.203Z,10.95
2023-03-02T11:10:26.915Z,10.45
2023-03-02T11:12:54.890Z,10.38
2023-03-02T11:15:25.159Z,10.30
2023-03-02T11:17:55.648Z,10.77
2023-03-02T11:20:24.928Z,10.55
2023-03-02T11:23:03.712Z,10.77
2023-03-02T11:25:32.975Z,9.98
2023-03-02T11:28:03.178Z,9.57
2023-03-02T11:33:00.974Z,8.95
2023-03-02T11:35:31.893Z,9.00
2023-03-02T11:38:05.100Z,9.55
2023-03-02T11:40:33.742Z,8.50
2023-03-02T11:43:01.469Z,9.45
2023-03-02T11:45:30.688Z,9.18
2023-03-02T11:48:03.349Z,8.27
2023-03-02T11:50:31.504Z,8.85
2023-03-02T11:52:59.661Z,9.07
2023-03-02T11:55:28.872Z,8.30
2023-03-02T11:57:57.695Z,7.63
2023-03-02T12:00:31.389Z,7.10
2023-03-02T12:03:00.275Z,7.28
2023-03-02T12:05:28.593Z,7.70
2023-03-02T12:07:59.497Z,7.40
2023-03-02T12:10:33.983Z,6.80
2023-03-02T12:13:07.666Z,6.88
2023-03-02T12:15:37.847Z,7.35
2023-03-02T12:20:43.805Z,7.45
2023-03-02T12:23:22.567Z,6.90
2023-03-02T12:25:51.991Z,7.38
2023-03-02T12:28:31.210Z,6.75
2023-03-02T12:31:03.729Z,7.30
2023-03-02T12:33:31.158Z,6.88
2023-03-02T12:36:06.382Z,6.43
2023-03-02T12:38:36.668Z,6.78
2023-03-02T12:41:17.499Z,6.93
2023-03-02T12:43:45.536Z,6.45
2023-03-02T12:46:30.043Z,6.18
2023-03-02T12:49:05.929Z,6.30
2023-03-02T12:51:35.201Z,6.30
2023-03-02T12:54:03.366Z,5.78
2023-03-02T12:56:32.074Z,6.68
2023-03-02T12:59:00.120Z,5.63
2023-03-02T13:01:28.698Z,6.22
2023-03-02T13:03:56.347Z,5.63
2023-03-02T13:06:24.477Z,6.00
2023-03-02T13:08:53.861Z,5.43
2023-03-02T13:11:22.714Z,5.97
2023-03-02T13:13:51.426Z,6.20
2023-03-02T13:16:21.094Z,5.80
2023-03-02T13:18:49.771Z,5.78
2023-03-02T13:21:17.196Z,5.85
2023-03-02T13:23:46.312Z,5.90
2023-03-02T13:26:24.700Z,5.70
2023-03-02T13:29:02.849Z,5.68
2023-03-02T13:31:30.338Z,6.05
2023-03-02T13:33:57.867Z,5.65
2023-03-02T13:36:26.204Z,5.78
2023-03-02T13:38:54.385Z,5.80
2023-03-02T13:41:23.023Z,5.70
2023-03-02T13:43:50.391Z,5.07
2023-03-02T13:46:36.692Z,5.22
2023-03-02T13:49:10.730Z,4.80
2023-03-02T13:51:40.496Z,5.32
2023-03-02T13:54:15.805Z,4.95
2023-03-02T13:56:44.045Z,5.07
2023-03-02T13:59:12.453Z,5.43
2023-03-02T14:01:41.651Z,5.97
2023-03-02T14:04:10.207Z,4.72
2023-03-02T14:06:37.675Z,5.32
2023-03-02T14:09:05.154Z,5.40
2023-03-02T14:11:35.652Z,5.65
2023-03-02T14:14:03.159Z,5.32
2023-03-02T14:16:30.984Z,5.10
2023-03-02T14:18:59.870Z,4.80
2023-03-02T14:21:27.405Z,5.00
2023-03-02T14:23:54.909Z,5.45
2023-03-02T14:26:31.319Z,5.00
2023-03-02T14:29:05.494Z,4.65
2023-03-02T14:31:33.739Z,4.85
2023-03-02T14:34:02.566Z,4.85
2023-03-02T14:36:30.933Z,4.68
2023-03-02T14:38:58.552Z,4.97
2023-03-02T14:41:25.932Z,4.70
2023-03-02T14:43:53.306Z,5.03
2023-03-02T14:46:20.731Z,5.30
2023-03-02T14:48:48.232Z,5.05
2023-03-02T14:51:21.188Z,4.78
2023-03-02T14:53:49.394Z,5.15
2023-03-02T14:56:16.804Z,5.38
2023-03-02T14:58:44.189Z,5.30
2023-03-02T15:01:12.161Z,5.13
2023-03-02T15:03:39.615Z,4.88
2023-03-02T15:06:08.100Z,4.97
2023-03-02T15:08:38.269Z,5.40
2023-03-02T15:13:33.003Z,4.30
2023-03-02T15:16:00.543Z,5.15
2023-03-02T15:18:27.980Z,4.63
2023-03-02T15:20:55.354Z,4.47
2023-03-02T15:23:22.759Z,5.10
2023-03-02T15:25:51.447Z,4.93
2023-03-02T15:28:18.872Z,4.78
2023-03-02T15:30:47.381Z,5.43
2023-03-02T15:33:14.761Z,4.90
2023-03-02T15:35:42.258Z,5.03
2023-03-02T15:38:09.659Z,4.47
2023-03-02T15:40:37.098Z,5.32
2023-03-02T15:43:05.836Z,5.28
2023-03-02T15:45:33.243Z,4.95
2023-03-02T15:48:00.690Z,4.88
2023-03-02T15:50:28.075Z,5.57
2023-03-02T15:52:57.288Z,5.10
2023-03-02T15:55:24.786Z,5.15
2023-03-02T15:57:52.203Z,5.13
2023-03-02T16:00:22.033Z,4.97
2023-03-02T16:02:49.547Z,5.63
2023-03-02T16:05:17.612Z,5.20
2023-03-02T16:07:45.060Z,5.07
2023-03-02T16:10:16.290Z,5.53
2023-03-02T16:12:43.785Z,5.72
2023-03-02T16:15:11.726Z,5.80
2023-03-02T16:17:40.439Z,6.15
2023-03-02T16:20:08.485Z,5.97
2023-03-02T16:22:35.882Z,5.78
2023-03-02T16:25:03.286Z,5.85
2023-03-02T16:27:31.201Z,5.80
2023-03-02T16:29:58.625Z,6.18
2023-03-02T16:32:26.092Z,6.18
2023-03-02T16:34:56.011Z,6.15
2023-03-02T16:37:23.501Z,6.28
2023-03-02T16:39:50.940Z,6.47
2023-03-02T16:42:18.429Z,6.30
2023-03-02T16:44:45.866Z,6.65
2023-03-02T16:47:13.298Z,6.70
2023-03-02T16:49:40.705Z,7.03
2023-03-02T16:52:09.404Z,7.00
2023-03-02T16:54:36.803Z,7.32
2023-03-02T16:57:04.214Z,6.68
2023-03-02T16:59:31.593Z,6.80
2023-03-02T17:01:58.980Z,7.70
2023-03-02T17:04:26.428Z,7.28
2023-03-02T17:07:01.505Z,7.63
2023-03-02T17:09:30.404Z,7.47
2023-03-02T17:11:57.873Z,8.38
2023-03-02T17:14:25.290Z,7.65
2023-03-02T17:16:52.706Z,8.05
2023-03-02T17:19:20.551Z,9.13
2023-03-02T17:21:47.954Z,9.25
2023-03-02T17:24:15.337Z,9.27
2023-03-02T17:26:46.680Z,9.57
2023-03-02T17:29:14.069Z,8.90
2023-03-02T17:31:41.449Z,8.95
2023-03-02T17:34:08.831Z,8.93
2023-03-02T17:36:36.887Z,10.55
2023-03-02T17:39:04.543Z,10.05
2023-03-02T17:41:31.995Z,10.55
2023-03-02T17:44:01.197Z,9.50
2023-03-02T17:46:28.790Z,10.45
2023-03-02T17:48:57.435Z,10.00
2023-03-02T17:51:25.127Z,10.75
2023-03-02T17:53:53.152Z,9.88
2023-03-02T17:56:21.985Z,10.35
2023-03-02T17:58:52.441Z,11.13
2023-03-02T18:01:21.119Z,11.48
2023-03-02T18:03:48.536Z,10.43
2023-03-02T18:06:17.844Z,10.63
2023-03-02T18:08:45.276Z,11.30
2023-03-02T18:11:12.683Z,10.93
2023-03-02T18:13:40.579Z,11.73
2023-03-02T18:16:08.117Z,10.93
2023-03-02T18:18:36.832Z,11.00
2023-03-02T18:21:04.454Z,10.93
2023-03-02T18:23:32.102Z,11.00
2023-03-02T18:25:59.479Z,11.35
2023-03-02T18:28:26.875Z,10.30
2023-03-02T18:30:54.377Z,11.00
2023-03-02T18:33:21.925Z,11.82
2023-03-02T18:35:50.649Z,10.18
2023-03-02T18:38:18.140Z,9.95
2023-03-02T18:40:45.525Z,9.48
2023-03-02T18:43:12.932Z,9.85
2023-03-02T18:45:41.367Z,10.43
2023-03-02T18:48:08.764Z,9.82
2023-03-02T18:50:36.934Z,10.30
2023-03-02T18:53:05.639Z,9.65
2023-03-02T18:55:33.084Z,9.18
2023-03-02T18:58:00.498Z,9.52
2023-03-02T19:00:28.906Z,9.50
2023-03-02T19:02:56.426Z,9.25
2023-03-02T19:05:26.773Z,8.88
2023-03-02T19:07:54.658Z,8.95
2023-03-02T19:10:23.353Z,9.05
2023-03-02T19:12:51.007Z,9.50
2023-03-02T19:15:18.564Z,8.65
2023-03-02T19:17:46.014Z,9.00
2023-03-02T19:20:14.107Z,8.63
2023-03-02T19:22:41.542Z,8.93
2023-03-02T19:25:09.912Z,9.13
2023-03-02T19:27:38.626Z,8.38
2023-03-02T19:30:07.036Z,8.88
2023-03-02T19:32:34.478Z,8.65
2023-03-02T19:35:02.225Z,7.95
2023-03-02T19:37:29.612Z,7.85
2023-03-02T19:39:57.030Z,8.77
2023-03-02T19:42:24.463Z,9.00
2023-03-02T19:44:53.160Z,8.13
2023-03-02T19:47:20.546Z,8.57
2023-03-02T19:49:47.953Z,7.90
2023-03-02T19:54:37.943Z,8.50
2023-03-02T19:57:05.968Z,7.88
2023-03-02T19:59:33.475Z,8.88
2023-03-02T20:02:02.369Z,8.43
2023-03-02T20:04:30.383Z,8.13
2023-03-02T20:06:58.792Z,8.43
2023-03-02T20:09:27.705Z,8.50
2023-03-02T20:11:55.086Z,8.23
2023-03-02T20:14:33.361Z,7.78
2023-03-02T20:17:02.733Z,8.48
2023-03-02T20:19:30.113Z,8.98
2023-03-02T20:21:57.496Z,8.00
2023-03-02T20:24:24.883Z,8.45
2023-03-02T20:26:52.282Z,8.73
2023-03-02T20:29:19.786Z,9.25
2023-03-02T20:31:47.236Z,8.98
2023-03-02T20:34:16.886Z,8.82
2023-03-02T20:36:44.272Z,8.15
2023-03-02T20:39:13.512Z,9.52
2023-03-02T20:41:40.908Z,9.20
2023-03-02T20:44:09.011Z,9.35
2023-03-02T20:46:39.733Z,8.88
2023-03-02T20:49:07.760Z,8.45
2023-03-02T20:51:36.460Z,8.82
2023-03-02T20:54:04.338Z,8.23
2023-03-02T20:56:31.723Z,8.57
2023-03-02T20:58:59.122Z,8.68
2023-03-02T21:01:26.669Z,8.95
2023-03-02T21:03:54.083Z,9.07
2023-03-02T21:06:21.452Z,8.52
2023-03-02T21:08:50.350Z,8.82
2023-03-02T21:11:19.960Z,9.38
2023-03-02T21:13:48.139Z,8.43
2023-03-02T21:16:16.421Z,8.93
2023-03-02T21:18:43.829Z,8.25
2023-03-02T21:21:11.207Z,8.38
2023-03-02T21:23:41.443Z,7.55
2023-03-02T21:28:37.510Z,8.43
2023-03-02T21:31:05.279Z,9.45
2023-03-02T21:33:32.703Z,8.23
2023-03-02T21:36:00.126Z,8.50
2023-03-02T21:38:27.674Z,8.63
2023-03-02T21:40:55.077Z,8.40
2023-03-02T21:43:24.149Z,8.70
2023-03-02T21:45:51.699Z,8.93
2023-03-02T21:48:20.734Z,9.50
2023-03-02T21:53:16.963Z,8.30
2023-03-02T21:55:45.530Z,8.45
2023-03-02T21:58:12.918Z,8.30
2023-03-02T22:00:42.775Z,8.20
2023-03-02T22:03:10.173Z,9.07
2023-03-02T22:05:37.812Z,9.27
2023-03-02T22:08:05.350Z,8.85
2023-03-02T22:10:34.268Z,8.93
2023-03-02T22:13:14.626Z,8.88
2023-03-02T22:15:43.314Z,8.27
2023-03-02T22:18:12.068Z,9.05
2023-03-02T22:20:40.154Z,9.45
2023-03-02T22:23:11.447Z,9.40
2023-03-02T22:25:38.840Z,9.13
2023-03-02T22:28:14.179Z,9.85
2023-03-02T22:30:42.929Z,10.10
2023-03-02T22:33:18.846Z,10.00
2023-03-02T22:35:46.472Z,9.98
2023-03-02T22:38:14.768Z,9.43
2023-03-02T22:40:42.811Z,8.98
2023-03-02T22:43:14.920Z,9.07
2023-03-02T22:45:43.616Z,9.90
2023-03-02T22:48:14.471Z,9.07
2023-03-02T22:50:41.891Z,9.48
2023-03-02T22:53:25.711Z,10.55
2023-03-02T22:55:58.107Z,9.75
2023-03-02T22:58:44.247Z,9.77
2023-03-02T23:01:19.738Z,9.95
2023-03-02T23:03:47.556Z,10.38
2023-03-02T23:06:30.011Z,9.93
2023-03-02T23:08:58.182Z,10.15
2023-03-02T23:11:25.909Z,10.00
2023-03-02T23:13:53.597Z,10.20
2023-03-02T23:16:23.317Z,10.10
2023-03-02T23:18:50.900Z,9.25
2023-03-02T23:21:19.839Z,10.15
2023-03-02T23:23:47.396Z,9.57
2023-03-02T23:26:15.594Z,10.70
2023-03-02T23:28:43.035Z,10.40
2023-03-02T23:31:10.703Z,10.27
2023-03-02T23:33:39.500Z,10.48
2023-03-02T23:36:07.751Z,9.30
2023-03-02T23:38:35.121Z,9.82
2023-03-02T23:41:02.512Z,9.52
2023-03-02T23:43:29.923Z,10.10
2023-03-02T23:45:57.374Z,10.27
2023-03-02T23:48:24.806Z,9.60
2023-03-02T23:50:53.719Z,8.75
2023-03-02T23:53:21.113Z,8.98
2023-03-02T23:55:49.383Z,8.85
2023-03-02T23:58:16.870Z,9.80
